Time,TemperatureF,DewpointF,PressureIn,WindDirection,WindDirectionDegrees,WindSpeedMPH,WindSpeedGustMPH,Humidity,HourlyPrecipIn,Conditions,Clouds,dailyrainin,SolarRadiationWatts/m^2,SoftwareType,DateUTC
2013-02-16 00:02:00,25.0,14.0,-100.00,SSW,192,6.0,9.0,63,0.00,,,0.00,0.000000,,2013-02-16 07:02:00,
2013-02-16 00:11:00,25.0,14.0,-100.00,SSW,192,6.0,9.0,63,0.00,,,0.00,0.000000,,2013-02-16 07:11:00,
2013-02-16 00:32:00,23.0,14.0,-100.00,SSE,154,4.0,8.0,67,0.00,,,0.00,0.000000,,2013-02-16 07:32:00,
2013-02-16 00:42:00,23.0,14.0,-100.00,SSE,154,4.0,8.0,67,0.00,,,0.00,0.000000,,2013-02-16 07:42:00,
2013-02-16 00:53:00,23.0,14.0,-100.00,SSE,154,4.0,8.0,67,0.00,,,0.00,0.000000,,2013-02-16 07:53:00,
2013-02-16 01:01:00,23.0,14.0,-100.00,SSE,154,4.0,8.0,67,0.00,,,0.00,0.000000,,2013-02-16 08:01:00,
2013-02-16 01:11:00,23.0,14.0,-100.00,SSE,154,4.0,8.0,67,0.00,,,0.00,0.000000,,2013-02-16 08:11:00,
2013-02-16 01:32:00,24.0,14.0,-100.00,SSW,194,4.0,9.0,65,0.00,,,0.00,0.000000,,2013-02-16 08:32:00,
2013-02-16 01:42:00,24.0,14.0,-100.00,SSW,194,4.0,9.0,65,0.00,,,0.00,0.000000,,2013-02-16 08:42:00,
2013-02-16 01:52:00,24.0,14.0,-100.00,SSW,194,4.0,9.0,65,0.00,,,0.00,0.000000,,2013-02-16 08:52:00,
2013-02-16 02:01:00,24.0,14.0,-100.00,SSW,194,4.0,9.0,65,0.00,,,0.00,0.000000,,2013-02-16 09:01:00,
2013-02-16 02:11:00,24.0,14.0,-100.00,SSW,194,4.0,9.0,65,0.00,,,0.00,0.000000,,2013-02-16 09:11:00,
2013-02-16 02:42:00,25.0,15.0,-100.00,South,185,7.0,10.0,64,0.00,,,0.00,0.000000,,2013-02-16 09:42:00,
2013-02-16 02:52:00,25.0,15.0,-100.00,South,185,7.0,10.0,64,0.00,,,0.00,0.000000,,2013-02-16 09:52:00,
2013-02-16 03:01:00,25.0,15.0,-100.00,South,185,7.0,10.0,64,0.00,,,0.00,0.000000,,2013-02-16 10:01:00,
2013-02-16 03:11:00,25.0,15.0,-100.00,South,185,7.0,10.0,64,0.00,,,0.00,0.000000,,2013-02-16 10:11:00,
2013-02-16 03:42:00,30.0,16.0,-100.00,South,182,4.0,11.0,56,0.00,,,0.00,0.000000,,2013-02-16 10:42:00,
2013-02-16 03:52:00,30.0,16.0,-100.00,South,182,4.0,11.0,56,0.00,,,0.00,0.000000,,2013-02-16 10:52:00,
2013-02-16 04:02:00,30.0,16.0,-100.00,South,182,4.0,11.0,56,0.00,,,0.00,0.000000,,2013-02-16 11:02:00,
2013-02-16 04:11:00,30.0,16.0,-100.00,South,182,4.0,11.0,56,0.00,,,0.00,0.000000,,2013-02-16 11:11:00,
2013-02-16 04:32:00,31.0,18.0,-100.00,South,190,5.0,12.0,57,0.00,,,0.00,0.000000,,2013-02-16 11:32:00,
2013-02-16 04:42:00,31.0,18.0,-100.00,South,190,5.0,12.0,57,0.00,,,0.00,0.000000,,2013-02-16 11:42:00,
2013-02-16 04:52:00,31.0,18.0,-100.00,South,190,5.0,12.0,57,0.00,,,0.00,0.000000,,2013-02-16 11:52:00,
2013-02-16 05:01:00,31.0,18.0,-100.00,South,190,5.0,12.0,57,0.00,,,0.00,0.000000,,2013-02-16 12:01:00,
2013-02-16 05:12:00,31.0,18.0,-100.00,South,190,5.0,12.0,57,0.00,,,0.00,0.000000,,2013-02-16 12:12:00,
2013-02-16 05:32:00,30.0,18.0,-100.00,SSW,198,6.0,13.0,60,0.00,,,0.00,0.000000,,2013-02-16 12:32:00,
2013-02-16 05:42:00,30.0,18.0,-100.00,SSW,198,6.0,13.0,60,0.00,,,0.00,0.000000,,2013-02-16 12:42:00,
2013-02-16 05:52:00,30.0,18.0,-100.00,SSW,198,6.0,13.0,60,0.00,,,0.00,0.000000,,2013-02-16 12:52:00,
2013-02-16 06:02:00,30.0,18.0,-100.00,SSW,198,6.0,13.0,60,0.00,,,0.00,0.000000,,2013-02-16 13:02:00,
2013-02-16 06:11:00,30.0,18.0,-100.00,SSW,198,6.0,13.0,60,0.00,,,0.00,0.000000,,2013-02-16 13:11:00,
2013-02-16 07:42:00,32.0,20.0,-100.00,NW,309,6.0,17.0,62,-99.99,,,0.00,3.000000,,2013-02-16 14:42:00,
2013-02-16 07:52:00,32.0,20.0,-100.00,NW,309,6.0,17.0,62,-99.99,,,0.00,3.000000,,2013-02-16 14:52:00,
2013-02-16 08:01:00,32.0,20.0,-100.00,NW,309,6.0,17.0,62,-99.99,,,0.00,3.000000,,2013-02-16 15:01:00,
2013-02-16 08:11:00,32.0,20.0,-100.00,NW,309,6.0,17.0,62,-99.99,,,0.00,3.000000,,2013-02-16 15:11:00,
2013-02-16 08:42:00,35.0,22.0,-100.00,SW,224,11.0,18.0,58,0.00,,,0.00,64.000000,,2013-02-16 15:42:00,
2013-02-16 08:52:00,35.0,22.0,-100.00,SW,224,11.0,18.0,58,0.00,,,0.00,64.000000,,2013-02-16 15:52:00,
2013-02-16 09:01:00,35.0,22.0,-100.00,SW,224,11.0,18.0,58,0.00,,,0.00,64.000000,,2013-02-16 16:01:00,
2013-02-16 09:11:00,35.0,22.0,-100.00,SW,224,11.0,18.0,58,0.00,,,0.00,64.000000,,2013-02-16 16:11:00,
2013-02-16 09:32:00,40.0,23.0,-100.00,West,260,9.0,18.0,50,0.00,,,0.00,237.000000,,2013-02-16 16:32:00,
2013-02-16 09:42:00,40.0,23.0,-100.00,West,260,9.0,18.0,50,0.00,,,0.00,237.000000,,2013-02-16 16:42:00,
2013-02-16 09:52:00,40.0,23.0,-100.00,West,260,9.0,18.0,50,0.00,,,0.00,237.000000,,2013-02-16 16:52:00,
2013-02-16 10:01:00,40.0,23.0,-100.00,West,260,9.0,18.0,50,0.00,,,0.00,237.000000,,2013-02-16 17:01:00,
2013-02-16 10:11:00,40.0,23.0,-100.00,West,260,9.0,18.0,50,0.00,,,0.00,237.000000,,2013-02-16 17:11:00,
2013-02-16 10:42:00,46.0,24.0,-100.00,WNW,288,11.0,21.0,41,0.00,,,0.00,481.000000,,2013-02-16 17:42:00,
2013-02-16 10:52:00,46.0,24.0,-100.00,WNW,288,11.0,21.0,41,0.00,,,0.00,481.000000,,2013-02-16 17:52:00,
2013-02-16 11:02:00,46.0,24.0,-100.00,WNW,288,11.0,21.0,41,0.00,,,0.00,481.000000,,2013-02-16 18:02:00,
2013-02-16 11:11:00,46.0,24.0,-100.00,WNW,288,11.0,21.0,41,0.00,,,0.00,481.000000,,2013-02-16 18:11:00,
2013-02-16 11:33:00,48.0,23.0,-100.00,West,278,9.0,24.0,37,0.00,,,0.00,636.000000,,2013-02-16 18:33:00,
2013-02-16 11:42:00,48.0,23.0,-100.00,West,278,9.0,24.0,37,0.00,,,0.00,636.000000,,2013-02-16 18:42:00,
2013-02-16 11:52:00,48.0,23.0,-100.00,West,278,9.0,24.0,37,0.00,,,0.00,636.000000,,2013-02-16 18:52:00,
2013-02-16 12:02:00,48.0,23.0,-100.00,West,278,9.0,24.0,37,0.00,,,0.00,636.000000,,2013-02-16 19:02:00,
2013-02-16 12:11:00,48.0,23.0,-100.00,West,278,9.0,24.0,37,0.00,,,0.00,636.000000,,2013-02-16 19:11:00,
2013-02-16 12:42:00,49.0,23.0,-100.00,WNW,297,12.0,22.0,35,0.00,,,0.00,724.000000,,2013-02-16 19:42:00,
2013-02-16 12:52:00,49.0,23.0,-100.00,WNW,297,12.0,22.0,35,0.00,,,0.00,724.000000,,2013-02-16 19:52:00,
2013-02-16 13:01:00,49.0,23.0,-100.00,WNW,297,12.0,22.0,35,0.00,,,0.00,724.000000,,2013-02-16 20:01:00,
2013-02-16 13:11:00,49.0,23.0,-100.00,WNW,297,12.0,22.0,35,0.00,,,0.00,724.000000,,2013-02-16 20:11:00,
2013-02-16 13:42:00,50.0,23.0,-100.00,WNW,286,13.0,24.0,34,0.00,,,0.00,747.000000,,2013-02-16 20:42:00,
2013-02-16 13:52:00,50.0,23.0,-100.00,WNW,286,13.0,24.0,34,0.00,,,0.00,747.000000,,2013-02-16 20:52:00,
2013-02-16 14:02:00,50.0,23.0,-100.00,WNW,286,13.0,24.0,34,0.00,,,0.00,747.000000,,2013-02-16 21:02:00,
2013-02-16 14:11:00,50.0,23.0,-100.00,WNW,286,13.0,24.0,34,0.00,,,0.00,747.000000,,2013-02-16 21:11:00,
2013-02-16 14:42:00,51.0,22.0,-100.00,WNW,296,10.0,21.0,32,0.00,,,0.00,698.000000,,2013-02-16 21:42:00,
2013-02-16 14:52:00,51.0,22.0,-100.00,WNW,296,10.0,21.0,32,0.00,,,0.00,698.000000,,2013-02-16 21:52:00,
2013-02-16 15:01:00,51.0,22.0,-100.00,WNW,296,10.0,21.0,32,0.00,,,0.00,698.000000,,2013-02-16 22:01:00,
2013-02-16 15:11:00,51.0,22.0,-100.00,WNW,296,10.0,21.0,32,0.00,,,0.00,698.000000,,2013-02-16 22:11:00,
2013-02-16 15:32:00,51.0,22.0,-100.00,WNW,297,11.0,19.0,32,0.00,,,0.00,581.000000,,2013-02-16 22:32:00,
2013-02-16 15:42:00,51.0,22.0,-100.00,WNW,297,11.0,19.0,32,0.00,,,0.00,581.000000,,2013-02-16 22:42:00,
2013-02-16 15:52:00,51.0,22.0,-100.00,WNW,297,11.0,19.0,32,0.00,,,0.00,581.000000,,2013-02-16 22:52:00,
2013-02-16 16:02:00,51.0,22.0,-100.00,WNW,297,11.0,19.0,32,0.00,,,0.00,581.000000,,2013-02-16 23:02:00,
2013-02-16 16:11:00,51.0,22.0,-100.00,WNW,297,11.0,19.0,32,0.00,,,0.00,581.000000,,2013-02-16 23:11:00,
2013-02-16 16:32:00,50.0,23.0,-100.00,West,268,7.0,23.0,34,0.00,,,0.00,404.000000,,2013-02-16 23:32:00,
2013-02-16 16:42:00,50.0,23.0,-100.00,West,268,7.0,23.0,34,0.00,,,0.00,404.000000,,2013-02-16 23:42:00,
2013-02-16 16:52:00,50.0,23.0,-100.00,West,268,7.0,23.0,34,0.00,,,0.00,404.000000,,2013-02-16 23:52:00,
2013-02-16 17:02:00,50.0,23.0,-100.00,West,268,7.0,23.0,34,0.00,,,0.00,404.000000,,2013-02-17 00:02:00,
2013-02-16 17:12:00,50.0,23.0,-100.00,West,268,7.0,23.0,34,0.00,,,0.00,404.000000,,2013-02-17 00:12:00,
2013-02-16 17:32:00,45.0,23.0,-100.00,WSW,241,5.0,14.0,42,0.00,,,0.00,98.000000,,2013-02-17 00:32:00,
2013-02-16 17:42:00,45.0,23.0,-100.00,WSW,241,5.0,14.0,42,0.00,,,0.00,98.000000,,2013-02-17 00:42:00,
2013-02-16 17:52:00,45.0,23.0,-100.00,WSW,241,5.0,14.0,42,0.00,,,0.00,98.000000,,2013-02-17 00:52:00,
2013-02-16 18:01:00,45.0,23.0,-100.00,WSW,241,5.0,14.0,42,0.00,,,0.00,98.000000,,2013-02-17 01:01:00,
2013-02-16 18:11:00,45.0,23.0,-100.00,WSW,241,5.0,14.0,42,0.00,,,0.00,98.000000,,2013-02-17 01:11:00,
2013-02-16 19:42:00,39.0,23.0,-100.00,WNW,300,4.0,11.0,52,-99.99,,,-99.99,0.000000,,2013-02-17 02:42:00,
2013-02-16 19:52:00,39.0,23.0,-100.00,WNW,300,4.0,11.0,52,-99.99,,,-99.99,0.000000,,2013-02-17 02:52:00,
2013-02-16 20:02:00,39.0,23.0,-100.00,WNW,300,4.0,11.0,52,-99.99,,,-99.99,0.000000,,2013-02-17 03:02:00,
2013-02-16 20:11:00,39.0,23.0,-100.00,WNW,300,4.0,11.0,52,-99.99,,,-99.99,0.000000,,2013-02-17 03:11:00,
2013-02-16 20:32:00,36.0,22.0,-100.00,SSW,198,2.0,6.0,56,0.00,,,0.00,0.000000,,2013-02-17 03:32:00,
2013-02-16 20:42:00,36.0,22.0,-100.00,SSW,198,2.0,6.0,56,0.00,,,0.00,0.000000,,2013-02-17 03:42:00,
2013-02-16 20:52:00,36.0,22.0,-100.00,SSW,198,2.0,6.0,56,0.00,,,0.00,0.000000,,2013-02-17 03:52:00,
2013-02-16 21:01:00,36.0,22.0,-100.00,SSW,198,2.0,6.0,56,0.00,,,0.00,0.000000,,2013-02-17 04:01:00,
2013-02-16 21:11:00,36.0,22.0,-100.00,SSW,198,2.0,6.0,56,0.00,,,0.00,0.000000,,2013-02-17 04:11:00,
2013-02-16 21:42:00,38.0,21.0,-100.00,NW,322,5.0,11.0,50,0.00,,,0.00,0.000000,,2013-02-17 04:42:00,
2013-02-16 21:52:00,38.0,21.0,-100.00,NW,322,5.0,11.0,50,0.00,,,0.00,0.000000,,2013-02-17 04:52:00,
2013-02-16 22:02:00,38.0,21.0,-100.00,NW,322,5.0,11.0,50,0.00,,,0.00,0.000000,,2013-02-17 05:02:00,
2013-02-16 22:12:00,38.0,21.0,-100.00,NW,322,5.0,11.0,50,0.00,,,0.00,0.000000,,2013-02-17 05:12:00,
2013-02-16 22:42:00,33.0,21.0,-100.00,NNW,337,3.0,6.0,60,0.00,,,0.00,0.000000,,2013-02-17 05:42:00,
2013-02-16 22:52:00,33.0,21.0,-100.00,NNW,337,3.0,6.0,60,0.00,,,0.00,0.000000,,2013-02-17 05:52:00,
2013-02-16 23:02:00,33.0,21.0,-100.00,NNW,337,3.0,6.0,60,0.00,,,0.00,0.000000,,2013-02-17 06:02:00,
2013-02-16 23:11:00,33.0,21.0,-100.00,NNW,337,3.0,6.0,60,0.00,,,0.00,0.000000,,2013-02-17 06:11:00,
2013-02-16 23:42:00,38.0,23.0,-100.00,WNW,303,4.0,12.0,54,0.00,,,0.00,0.000000,,2013-02-17 06:42:00,
2013-02-16 23:52:00,38.0,23.0,-100.00,WNW,303,4.0,12.0,54,0.00,,,0.00,0.000000,,2013-02-17 06:52:00,